sensor_id;sensor_type;location;lat;lon;timestamp;P1;durP1;ratioP1;P2;durP2;ratioP2
71973;SDS011;59840;52.122;5.404;2022-11-15T00:00:54;19.33;;;8.38;;
71973;SDS011;59840;52.122;5.404;2022-11-15T00:03:23;24.63;;;9.52;;
71973;SDS011;59840;52.122;5.404;2022-11-15T00:05:51;19.13;;;8.40;;
71973;SDS011;59840;52.122;5.404;2022-11-15T00:08:18;21.95;;;9.30;;
71973;SDS011;59840;52.122;5.404;2022-11-15T00:10:56;23.60;;;8.93;;
71973;SDS011;59840;52.122;5.404;2022-11-15T00:13:27;21.80;;;8.82;;
71973;SDS011;59840;52.122;5.404;2022-11-15T00:15:59;25.83;;;10.07;;
71973;SDS011;59840;52.122;5.404;2022-11-15T00:18:26;28.30;;;9.60;;
71973;SDS011;59840;52.122;5.404;2022-11-15T00:20:54;23.17;;;9.55;;
71973;SDS011;59840;52.122;5.404;2022-11-15T00:23:21;28.23;;;11.18;;
71973;SDS011;59840;52.122;5.404;2022-11-15T00:25:54;26.55;;;9.35;;
71973;SDS011;59840;52.122;5.404;2022-11-15T00:28:22;29.90;;;9.98;;
71973;SDS011;59840;52.122;5.404;2022-11-15T00:30:48;30.23;;;11.03;;
71973;SDS011;59840;52.122;5.404;2022-11-15T00:33:15;25.23;;;9.90;;
71973;SDS011;59840;52.122;5.404;2022-11-15T00:35:41;28.00;;;10.88;;
71973;SDS011;59840;52.122;5.404;2022-11-15T00:38:08;27.02;;;10.15;;
71973;SDS011;59840;52.122;5.404;2022-11-15T00:40:34;31.10;;;9.82;;
71973;SDS011;59840;52.122;5.404;2022-11-15T00:43:01;30.10;;;10.40;;
71973;SDS011;59840;52.122;5.404;2022-11-15T00:45:27;36.83;;;11.18;;
71973;SDS011;59840;52.122;5.404;2022-11-15T00:47:53;34.42;;;10.75;;
71973;SDS011;59840;52.122;5.404;2022-11-15T00:50:20;31.52;;;11.27;;
71973;SDS011;59840;52.122;5.404;2022-11-15T00:52:46;34.53;;;11.45;;
71973;SDS011;59840;52.122;5.404;2022-11-15T00:55:15;29.17;;;11.20;;
71973;SDS011;59840;52.122;5.404;2022-11-15T00:57:43;37.22;;;11.45;;
71973;SDS011;59840;52.122;5.404;2022-11-15T01:00:10;31.58;;;11.45;;
71973;SDS011;59840;52.122;5.404;2022-11-15T01:02:37;30.77;;;10.07;;
71973;SDS011;59840;52.122;5.404;2022-11-15T01:05:04;31.83;;;10.40;;
71973;SDS011;59840;52.122;5.404;2022-11-15T01:07:31;39.87;;;11.67;;
71973;SDS011;59840;52.122;5.404;2022-11-15T01:09:57;30.90;;;11.20;;
71973;SDS011;59840;52.122;5.404;2022-11-15T01:12:24;32.63;;;11.52;;
71973;SDS011;59840;52.122;5.404;2022-11-15T01:14:50;29.50;;;10.65;;
71973;SDS011;59840;52.122;5.404;2022-11-15T01:17:17;31.08;;;10.88;;
71973;SDS011;59840;52.122;5.404;2022-11-15T01:19:43;30.43;;;10.37;;
71973;SDS011;59840;52.122;5.404;2022-11-15T01:22:10;33.05;;;11.85;;
71973;SDS011;59840;52.122;5.404;2022-11-15T01:24:36;29.63;;;10.45;;
71973;SDS011;59840;52.122;5.404;2022-11-15T01:27:03;31.60;;;11.07;;
71973;SDS011;59840;52.122;5.404;2022-11-15T01:29:29;28.25;;;10.20;;
71973;SDS011;59840;52.122;5.404;2022-11-15T01:31:56;24.83;;;10.03;;
71973;SDS011;59840;52.122;5.404;2022-11-15T01:34:22;28.02;;;10.00;;
71973;SDS011;59840;52.122;5.404;2022-11-15T01:36:48;30.45;;;11.43;;
71973;SDS011;59840;52.122;5.404;2022-11-15T01:39:15;28.92;;;10.48;;
71973;SDS011;59840;52.122;5.404;2022-11-15T01:41:42;30.10;;;10.95;;
71973;SDS011;59840;52.122;5.404;2022-11-15T01:44:52;30.43;;;10.83;;
71973;SDS011;59840;52.122;5.404;2022-11-15T01:47:07;22.05;;;10.75;;
71973;SDS011;59840;52.122;5.404;2022-11-15T01:49:38;28.23;;;10.25;;
71973;SDS011;59840;52.122;5.404;2022-11-15T01:52:11;27.00;;;10.77;;
71973;SDS011;59840;52.122;5.404;2022-11-15T01:54:41;33.28;;;11.10;;
71973;SDS011;59840;52.122;5.404;2022-11-15T01:57:09;27.83;;;10.40;;
71973;SDS011;59840;52.122;5.404;2022-11-15T01:59:38;26.33;;;11.10;;
71973;SDS011;59840;52.122;5.404;2022-11-15T02:02:08;31.38;;;11.00;;
71973;SDS011;59840;52.122;5.404;2022-11-15T02:04:39;27.35;;;9.95;;
71973;SDS011;59840;52.122;5.404;2022-11-15T02:07:08;31.80;;;10.63;;
71973;SDS011;59840;52.122;5.404;2022-11-15T02:09:37;26.77;;;10.53;;
71973;SDS011;59840;52.122;5.404;2022-11-15T02:12:04;25.65;;;10.07;;
71973;SDS011;59840;52.122;5.404;2022-11-15T02:14:33;32.50;;;12.05;;
71973;SDS011;59840;52.122;5.404;2022-11-15T02:17:03;28.23;;;10.20;;
71973;SDS011;59840;52.122;5.404;2022-11-15T02:32:48;26.83;;;10.80;;
71973;SDS011;59840;52.122;5.404;2022-11-15T02:35:22;25.63;;;10.90;;
71973;SDS011;59840;52.122;5.404;2022-11-15T02:37:57;27.00;;;11.07;;
71973;SDS011;59840;52.122;5.404;2022-11-15T02:43:12;20.10;;;10.13;;
71973;SDS011;59840;52.122;5.404;2022-11-15T02:46:13;22.13;;;10.30;;
71973;SDS011;59840;52.122;5.404;2022-11-15T02:48:46;23.33;;;10.00;;
71973;SDS011;59840;52.122;5.404;2022-11-15T02:51:14;26.33;;;10.90;;
71973;SDS011;59840;52.122;5.404;2022-11-15T02:53:42;26.83;;;10.73;;
71973;SDS011;59840;52.122;5.404;2022-11-15T02:56:09;28.25;;;11.55;;
71973;SDS011;59840;52.122;5.404;2022-11-15T03:03:53;24.50;;;11.68;;
71973;SDS011;59840;52.122;5.404;2022-11-15T03:12:37;23.77;;;10.32;;
71973;SDS011;59840;52.122;5.404;2022-11-15T03:15:18;23.60;;;10.63;;
71973;SDS011;59840;52.122;5.404;2022-11-15T03:21:03;19.38;;;9.70;;
71973;SDS011;59840;52.122;5.404;2022-11-15T03:23:32;19.77;;;9.60;;
71973;SDS011;59840;52.122;5.404;2022-11-15T03:26:02;21.38;;;10.18;;
71973;SDS011;59840;52.122;5.404;2022-11-15T03:28:37;27.00;;;10.47;;
71973;SDS011;59840;52.122;5.404;2022-11-15T03:31:07;21.58;;;10.40;;
71973;SDS011;59840;52.122;5.404;2022-11-15T03:33:56;22.90;;;10.18;;
71973;SDS011;59840;52.122;5.404;2022-11-15T03:36:25;25.17;;;10.82;;
71973;SDS011;59840;52.122;5.404;2022-11-15T03:38:53;21.67;;;10.73;;
71973;SDS011;59840;52.122;5.404;2022-11-15T03:47:42;22.77;;;9.95;;
71973;SDS011;59840;52.122;5.404;2022-11-15T03:50:14;24.45;;;9.90;;
71973;SDS011;59840;52.122;5.404;2022-11-15T03:52:46;17.90;;;10.18;;
71973;SDS011;59840;52.122;5.404;2022-11-15T03:55:18;19.13;;;10.10;;
71973;SDS011;59840;52.122;5.404;2022-11-15T03:57:47;20.67;;;10.00;;
71973;SDS011;59840;52.122;5.404;2022-11-15T04:00:17;24.35;;;10.32;;
71973;SDS011;59840;52.122;5.404;2022-11-15T04:02:44;24.90;;;10.80;;
71973;SDS011;59840;52.122;5.404;2022-11-15T04:05:11;24.77;;;10.60;;
71973;SDS011;59840;52.122;5.404;2022-11-15T04:07:37;24.53;;;9.87;;
71973;SDS011;59840;52.122;5.404;2022-11-15T04:10:04;20.88;;;10.23;;
71973;SDS011;59840;52.122;5.404;2022-11-15T04:12:33;17.25;;;9.80;;
71973;SDS011;59840;52.122;5.404;2022-11-15T04:15:02;21.27;;;9.88;;
71973;SDS011;59840;52.122;5.404;2022-11-15T04:17:47;18.70;;;9.80;;
71973;SDS011;59840;52.122;5.404;2022-11-15T04:20:18;20.30;;;10.00;;
71973;SDS011;59840;52.122;5.404;2022-11-15T04:23:13;20.67;;;9.95;;
71973;SDS011;59840;52.122;5.404;2022-11-15T04:26:04;17.88;;;9.68;;
71973;SDS011;59840;52.122;5.404;2022-11-15T04:28:33;19.35;;;10.25;;
71973;SDS011;59840;52.122;5.404;2022-11-15T04:31:00;19.20;;;8.95;;
71973;SDS011;59840;52.122;5.404;2022-11-15T04:33:26;20.83;;;10.33;;
71973;SDS011;59840;52.122;5.404;2022-11-15T04:35:53;19.90;;;9.45;;
71973;SDS011;59840;52.122;5.404;2022-11-15T04:38:38;17.70;;;10.15;;
71973;SDS011;59840;52.122;5.404;2022-11-15T04:41:04;18.92;;;9.65;;
71973;SDS011;59840;52.122;5.404;2022-11-15T04:43:31;20.25;;;9.98;;
71973;SDS011;59840;52.122;5.404;2022-11-15T04:45:58;19.17;;;10.10;;
71973;SDS011;59840;52.122;5.404;2022-11-15T04:48:24;21.10;;;9.35;;
71973;SDS011;59840;52.122;5.404;2022-11-15T04:50:51;23.85;;;10.10;;
71973;SDS011;59840;52.122;5.404;2022-11-15T04:53:17;16.88;;;9.15;;
71973;SDS011;59840;52.122;5.404;2022-11-15T04:55:44;21.25;;;9.30;;
71973;SDS011;59840;52.122;5.404;2022-11-15T04:58:11;16.33;;;9.03;;
71973;SDS011;59840;52.122;5.404;2022-11-15T05:00:38;17.38;;;10.10;;
71973;SDS011;59840;52.122;5.404;2022-11-15T05:03:05;17.60;;;9.80;;
71973;SDS011;59840;52.122;5.404;2022-11-15T05:05:50;16.73;;;9.55;;
71973;SDS011;59840;52.122;5.404;2022-11-15T05:08:17;16.75;;;8.95;;
71973;SDS011;59840;52.122;5.404;2022-11-15T05:10:44;19.10;;;9.13;;
71973;SDS011;59840;52.122;5.404;2022-11-15T05:13:10;20.50;;;9.90;;
71973;SDS011;59840;52.122;5.404;2022-11-15T05:15:37;16.40;;;9.00;;
71973;SDS011;59840;52.122;5.404;2022-11-15T05:18:03;20.65;;;9.63;;
71973;SDS011;59840;52.122;5.404;2022-11-15T05:20:30;16.35;;;9.82;;
71973;SDS011;59840;52.122;5.404;2022-11-15T05:22:56;16.87;;;9.07;;
71973;SDS011;59840;52.122;5.404;2022-11-15T05:25:23;17.15;;;9.57;;
71973;SDS011;59840;52.122;5.404;2022-11-15T05:27:49;17.85;;;9.45;;
71973;SDS011;59840;52.122;5.404;2022-11-15T05:30:16;14.95;;;8.95;;
71973;SDS011;59840;52.122;5.404;2022-11-15T05:32:43;19.08;;;9.63;;
71973;SDS011;59840;52.122;5.404;2022-11-15T05:35:16;18.97;;;9.67;;
71973;SDS011;59840;52.122;5.404;2022-11-15T05:37:46;15.27;;;9.65;;
71973;SDS011;59840;52.122;5.404;2022-11-15T05:40:12;16.23;;;10.00;;
71973;SDS011;59840;52.122;5.404;2022-11-15T05:42:39;17.63;;;9.05;;
71973;SDS011;59840;52.122;5.404;2022-11-15T05:45:06;17.48;;;9.55;;
71973;SDS011;59840;52.122;5.404;2022-11-15T05:47:35;17.10;;;9.07;;
71973;SDS011;59840;52.122;5.404;2022-11-15T05:50:03;17.85;;;9.32;;
71973;SDS011;59840;52.122;5.404;2022-11-15T05:52:31;20.92;;;9.75;;
71973;SDS011;59840;52.122;5.404;2022-11-15T05:55:01;16.98;;;9.45;;
71973;SDS011;59840;52.122;5.404;2022-11-15T05:57:29;18.48;;;9.65;;
71973;SDS011;59840;52.122;5.404;2022-11-15T05:59:55;20.83;;;9.77;;
71973;SDS011;59840;52.122;5.404;2022-11-15T06:02:22;19.10;;;10.13;;
71973;SDS011;59840;52.122;5.404;2022-11-15T06:04:48;18.55;;;9.02;;
71973;SDS011;59840;52.122;5.404;2022-11-15T06:07:15;18.33;;;9.70;;
71973;SDS011;59840;52.122;5.404;2022-11-15T06:09:41;20.55;;;9.55;;
71973;SDS011;59840;52.122;5.404;2022-11-15T06:12:08;16.27;;;9.47;;
71973;SDS011;59840;52.122;5.404;2022-11-15T06:14:34;14.40;;;9.23;;
71973;SDS011;59840;52.122;5.404;2022-11-15T06:17:01;16.48;;;9.15;;
71973;SDS011;59840;52.122;5.404;2022-11-15T06:19:36;16.30;;;8.93;;
71973;SDS011;59840;52.122;5.404;2022-11-15T06:22:02;20.67;;;9.68;;
71973;SDS011;59840;52.122;5.404;2022-11-15T06:24:29;17.30;;;8.97;;
71973;SDS011;59840;52.122;5.404;2022-11-15T06:26:55;17.58;;;9.43;;
71973;SDS011;59840;52.122;5.404;2022-11-15T06:29:23;16.67;;;9.77;;
71973;SDS011;59840;52.122;5.404;2022-11-15T06:31:50;22.08;;;9.93;;
71973;SDS011;59840;52.122;5.404;2022-11-15T06:34:16;14.90;;;9.50;;
71973;SDS011;59840;52.122;5.404;2022-11-15T06:36:43;18.73;;;9.80;;
71973;SDS011;59840;52.122;5.404;2022-11-15T06:39:09;16.65;;;10.10;;
71973;SDS011;59840;52.122;5.404;2022-11-15T06:41:36;16.17;;;9.80;;
71973;SDS011;59840;52.122;5.404;2022-11-15T06:44:03;17.83;;;9.65;;
71973;SDS011;59840;52.122;5.404;2022-11-15T06:46:29;22.02;;;10.05;;
71973;SDS011;59840;52.122;5.404;2022-11-15T06:48:55;23.07;;;10.30;;
71973;SDS011;59840;52.122;5.404;2022-11-15T06:51:22;18.35;;;9.75;;
71973;SDS011;59840;52.122;5.404;2022-11-15T06:53:48;23.60;;;9.77;;
71973;SDS011;59840;52.122;5.404;2022-11-15T06:56:15;19.30;;;9.32;;
71973;SDS011;59840;52.122;5.404;2022-11-15T06:58:41;20.80;;;9.60;;
71973;SDS011;59840;52.122;5.404;2022-11-15T07:01:09;22.37;;;10.00;;
71973;SDS011;59840;52.122;5.404;2022-11-15T07:03:38;15.55;;;9.45;;
71973;SDS011;59840;52.122;5.404;2022-11-15T07:06:06;17.83;;;9.40;;
71973;SDS011;59840;52.122;5.404;2022-11-15T07:08:33;18.92;;;8.93;;
71973;SDS011;59840;52.122;5.404;2022-11-15T07:11:01;15.95;;;9.10;;
71973;SDS011;59840;52.122;5.404;2022-11-15T07:13:30;15.40;;;9.77;;
71973;SDS011;59840;52.122;5.404;2022-11-15T07:16:03;18.80;;;9.70;;
71973;SDS011;59840;52.122;5.404;2022-11-15T07:18:31;18.15;;;8.75;;
71973;SDS011;59840;52.122;5.404;2022-11-15T07:21:01;14.82;;;9.02;;
71973;SDS011;59840;52.122;5.404;2022-11-15T07:23:31;14.63;;;9.18;;
71973;SDS011;59840;52.122;5.404;2022-11-15T07:25:59;19.33;;;10.23;;
71973;SDS011;59840;52.122;5.404;2022-11-15T07:28:26;16.25;;;8.88;;
71973;SDS011;59840;52.122;5.404;2022-11-15T07:30:53;18.35;;;9.77;;
71973;SDS011;59840;52.122;5.404;2022-11-15T07:33:20;20.90;;;9.43;;
71973;SDS011;59840;52.122;5.404;2022-11-15T07:35:47;23.00;;;9.80;;
71973;SDS011;59840;52.122;5.404;2022-11-15T07:38:17;16.97;;;8.37;;
71973;SDS011;59840;52.122;5.404;2022-11-15T07:40:46;17.35;;;8.95;;
71973;SDS011;59840;52.122;5.404;2022-11-15T07:43:13;13.57;;;8.60;;
71973;SDS011;59840;52.122;5.404;2022-11-15T07:45:40;17.08;;;8.50;;
71973;SDS011;59840;52.122;5.404;2022-11-15T07:48:08;15.48;;;8.68;;
71973;SDS011;59840;52.122;5.404;2022-11-15T07:50:35;15.33;;;8.00;;
71973;SDS011;59840;52.122;5.404;2022-11-15T07:53:02;15.68;;;8.73;;
71973;SDS011;59840;52.122;5.404;2022-11-15T07:55:28;19.00;;;8.43;;
71973;SDS011;59840;52.122;5.404;2022-11-15T07:58:02;18.77;;;8.68;;
71973;SDS011;59840;52.122;5.404;2022-11-15T08:00:30;14.25;;;8.45;;
71973;SDS011;59840;52.122;5.404;2022-11-15T08:03:04;14.70;;;7.97;;
71973;SDS011;59840;52.122;5.404;2022-11-15T08:05:32;18.67;;;8.40;;
71973;SDS011;59840;52.122;5.404;2022-11-15T08:08:00;16.10;;;7.97;;
71973;SDS011;59840;52.122;5.404;2022-11-15T08:10:27;14.73;;;8.25;;
71973;SDS011;59840;52.122;5.404;2022-11-15T08:12:58;13.02;;;7.68;;
71973;SDS011;59840;52.122;5.404;2022-11-15T08:15:35;15.70;;;7.77;;
71973;SDS011;59840;52.122;5.404;2022-11-15T08:18:04;13.50;;;7.53;;
71973;SDS011;59840;52.122;5.404;2022-11-15T08:20:35;12.35;;;7.18;;
71973;SDS011;59840;52.122;5.404;2022-11-15T08:23:03;16.00;;;7.15;;
71973;SDS011;59840;52.122;5.404;2022-11-15T08:25:31;14.15;;;8.05;;
71973;SDS011;59840;52.122;5.404;2022-11-15T08:27:59;13.77;;;7.30;;
71973;SDS011;59840;52.122;5.404;2022-11-15T08:30:28;12.60;;;7.70;;
71973;SDS011;59840;52.122;5.404;2022-11-15T08:32:56;14.25;;;7.40;;
71973;SDS011;59840;52.122;5.404;2022-11-15T08:35:24;10.63;;;6.65;;
71973;SDS011;59840;52.122;5.404;2022-11-15T08:37:54;12.23;;;6.97;;
71973;SDS011;59840;52.122;5.404;2022-11-15T08:40:21;11.63;;;7.33;;
71973;SDS011;59840;52.122;5.404;2022-11-15T08:42:48;13.15;;;7.00;;
71973;SDS011;59840;52.122;5.404;2022-11-15T08:45:15;12.80;;;7.50;;
71973;SDS011;59840;52.122;5.404;2022-11-15T08:47:42;10.65;;;7.03;;
71973;SDS011;59840;52.122;5.404;2022-11-15T08:50:08;12.27;;;7.45;;
71973;SDS011;59840;52.122;5.404;2022-11-15T08:52:35;10.43;;;6.93;;
71973;SDS011;59840;52.122;5.404;2022-11-15T08:55:01;13.55;;;7.15;;
71973;SDS011;59840;52.122;5.404;2022-11-15T08:57:29;14.77;;;7.75;;
71973;SDS011;59840;52.122;5.404;2022-11-15T08:59:58;15.25;;;7.05;;
71973;SDS011;59840;52.122;5.404;2022-11-15T09:02:25;16.50;;;7.30;;
71973;SDS011;59840;52.122;5.404;2022-11-15T09:04:51;14.63;;;7.10;;
71973;SDS011;59840;52.122;5.404;2022-11-15T09:07:18;14.25;;;7.35;;
71973;SDS011;59840;52.122;5.404;2022-11-15T09:09:45;12.23;;;7.57;;
71973;SDS011;59840;52.122;5.404;2022-11-15T09:12:11;15.00;;;7.13;;
71973;SDS011;59840;52.122;5.404;2022-11-15T09:14:38;10.85;;;7.10;;
71973;SDS011;59840;52.122;5.404;2022-11-15T09:17:07;11.80;;;7.27;;
71973;SDS011;59840;52.122;5.404;2022-11-15T09:19:34;11.38;;;6.70;;
71973;SDS011;59840;52.122;5.404;2022-11-15T09:22:01;18.08;;;8.77;;
71973;SDS011;59840;52.122;5.404;2022-11-15T09:24:27;12.63;;;7.22;;
71973;SDS011;59840;52.122;5.404;2022-11-15T09:26:54;11.40;;;7.28;;
71973;SDS011;59840;52.122;5.404;2022-11-15T09:29:20;13.63;;;6.97;;
71973;SDS011;59840;52.122;5.404;2022-11-15T09:31:47;10.23;;;6.03;;
71973;SDS011;59840;52.122;5.404;2022-11-15T09:34:13;10.70;;;6.80;;
71973;SDS011;59840;52.122;5.404;2022-11-15T09:36:40;9.55;;;6.13;;
71973;SDS011;59840;52.122;5.404;2022-11-15T09:39:06;9.65;;;5.68;;
71973;SDS011;59840;52.122;5.404;2022-11-15T09:41:44;9.70;;;5.83;;
71973;SDS011;59840;52.122;5.404;2022-11-15T09:47:15;6.03;;;4.70;;
71973;SDS011;59840;52.122;5.404;2022-11-15T09:50:01;6.13;;;4.53;;
71973;SDS011;59840;52.122;5.404;2022-11-15T09:52:34;9.40;;;4.40;;
71973;SDS011;59840;52.122;5.404;2022-11-15T09:55:03;6.60;;;4.60;;
71973;SDS011;59840;52.122;5.404;2022-11-15T09:57:39;5.75;;;3.80;;
71973;SDS011;59840;52.122;5.404;2022-11-15T10:03:11;6.97;;;3.75;;
71973;SDS011;59840;52.122;5.404;2022-11-15T10:05:46;9.00;;;4.30;;
71973;SDS011;59840;52.122;5.404;2022-11-15T10:11:32;9.02;;;3.65;;
71973;SDS011;59840;52.122;5.404;2022-11-15T10:14:23;5.30;;;3.70;;
71973;SDS011;59840;52.122;5.404;2022-11-15T10:17:00;4.65;;;3.40;;
71973;SDS011;59840;52.122;5.404;2022-11-15T10:22:18;6.53;;;3.20;;
71973;SDS011;59840;52.122;5.404;2022-11-15T10:25:14;2.63;;;2.22;;
71973;SDS011;59840;52.122;5.404;2022-11-15T10:27:47;4.35;;;3.15;;
71973;SDS011;59840;52.122;5.404;2022-11-15T10:30:19;3.17;;;2.50;;
71973;SDS011;59840;52.122;5.404;2022-11-15T10:32:46;4.38;;;2.70;;
71973;SDS011;59840;52.122;5.404;2022-11-15T10:35:18;3.37;;;2.23;;
71973;SDS011;59840;52.122;5.404;2022-11-15T10:38:01;4.90;;;2.10;;
71973;SDS011;59840;52.122;5.404;2022-11-15T10:40:35;2.30;;;2.08;;
71973;SDS011;59840;52.122;5.404;2022-11-15T10:43:17;3.47;;;2.17;;
71973;SDS011;59840;52.122;5.404;2022-11-15T10:45:45;2.85;;;1.98;;
71973;SDS011;59840;52.122;5.404;2022-11-15T10:50:46;5.13;;;2.17;;
71973;SDS011;59840;52.122;5.404;2022-11-15T10:56:13;2.95;;;1.73;;
71973;SDS011;59840;52.122;5.404;2022-11-15T10:58:53;4.32;;;1.70;;
71973;SDS011;59840;52.122;5.404;2022-11-15T11:01:23;3.70;;;1.60;;
71973;SDS011;59840;52.122;5.404;2022-11-15T11:03:58;4.10;;;1.83;;
71973;SDS011;59840;52.122;5.404;2022-11-15T11:09:29;1.42;;;1.33;;
71973;SDS011;59840;52.122;5.404;2022-11-15T11:11:59;2.95;;;1.38;;
71973;SDS011;59840;52.122;5.404;2022-11-15T11:14:28;3.30;;;1.23;;
71973;SDS011;59840;52.122;5.404;2022-11-15T11:22:12;3.63;;;1.67;;
71973;SDS011;59840;52.122;5.404;2022-11-15T11:29:52;3.08;;;1.38;;
71973;SDS011;59840;52.122;5.404;2022-11-15T11:32:48;6.03;;;1.90;;
71973;SDS011;59840;52.122;5.404;2022-11-15T11:44:32;2.17;;;1.15;;
71973;SDS011;59840;52.122;5.404;2022-11-15T11:47:00;2.22;;;1.20;;
71973;SDS011;59840;52.122;5.404;2022-11-15T11:49:34;3.42;;;0.82;;
71973;SDS011;59840;52.122;5.404;2022-11-15T11:52:15;1.60;;;0.93;;
71973;SDS011;59840;52.122;5.404;2022-11-15T11:54:46;1.70;;;0.80;;
71973;SDS011;59840;52.122;5.404;2022-11-15T11:57:25;2.58;;;0.85;;
71973;SDS011;59840;52.122;5.404;2022-11-15T12:00:18;2.80;;;1.13;;
71973;SDS011;59840;52.122;5.404;2022-11-15T12:05:39;3.40;;;0.82;;
71973;SDS011;59840;52.122;5.404;2022-11-15T12:08:19;6.07;;;0.90;;
71973;SDS011;59840;52.122;5.404;2022-11-15T12:10:50;1.90;;;0.50;;
71973;SDS011;59840;52.122;5.404;2022-11-15T12:13:23;2.28;;;0.50;;
71973;SDS011;59840;52.122;5.404;2022-11-15T12:16:03;2.40;;;0.47;;
71973;SDS011;59840;52.122;5.404;2022-11-15T12:18:38;4.22;;;0.50;;
71973;SDS011;59840;52.122;5.404;2022-11-15T12:21:24;1.53;;;0.30;;
71973;SDS011;59840;52.122;5.404;2022-11-15T12:23:55;2.45;;;0.57;;
71973;SDS011;59840;52.122;5.404;2022-11-15T12:26:35;2.97;;;0.40;;
71973;SDS011;59840;52.122;5.404;2022-11-15T12:29:11;1.38;;;0.40;;
71973;SDS011;59840;52.122;5.404;2022-11-15T12:31:49;1.95;;;0.85;;
71973;SDS011;59840;52.122;5.404;2022-11-15T12:36:45;1.23;;;0.60;;
71973;SDS011;59840;52.122;5.404;2022-11-15T12:39:12;3.00;;;0.40;;
71973;SDS011;59840;52.122;5.404;2022-11-15T12:41:41;1.90;;;0.38;;
71973;SDS011;59840;52.122;5.404;2022-11-15T13:02:25;2.47;;;0.50;;
71973;SDS011;59840;52.122;5.404;2022-11-15T13:04:53;1.63;;;0.40;;
71973;SDS011;59840;52.122;5.404;2022-11-15T13:17:48;1.60;;;0.57;;
71973;SDS011;59840;52.122;5.404;2022-11-15T13:28:11;2.00;;;0.60;;
71973;SDS011;59840;52.122;5.404;2022-11-15T13:33:23;1.48;;;0.60;;
71973;SDS011;59840;52.122;5.404;2022-11-15T13:36:03;1.27;;;0.80;;
71973;SDS011;59840;52.122;5.404;2022-11-15T13:38:59;3.57;;;0.63;;
71973;SDS011;59840;52.122;5.404;2022-11-15T13:41:28;2.15;;;0.68;;
71973;SDS011;59840;52.122;5.404;2022-11-15T13:43:57;2.92;;;0.75;;
71973;SDS011;59840;52.122;5.404;2022-11-15T13:46:26;1.35;;;0.50;;
71973;SDS011;59840;52.122;5.404;2022-11-15T13:48:58;2.30;;;0.70;;
71973;SDS011;59840;52.122;5.404;2022-11-15T13:54:10;2.03;;;0.70;;
71973;SDS011;59840;52.122;5.404;2022-11-15T13:56:52;2.78;;;0.70;;
71973;SDS011;59840;52.122;5.404;2022-11-15T13:59:24;2.85;;;0.85;;
71973;SDS011;59840;52.122;5.404;2022-11-15T14:01:53;2.10;;;0.80;;
71973;SDS011;59840;52.122;5.404;2022-11-15T14:04:22;2.67;;;0.73;;
71973;SDS011;59840;52.122;5.404;2022-11-15T14:06:52;2.85;;;0.80;;
71973;SDS011;59840;52.122;5.404;2022-11-15T14:09:32;1.20;;;0.50;;
71973;SDS011;59840;52.122;5.404;2022-11-15T14:15:32;3.08;;;0.80;;
71973;SDS011;59840;52.122;5.404;2022-11-15T14:18:00;5.23;;;1.33;;
71973;SDS011;59840;52.122;5.404;2022-11-15T14:20:31;2.17;;;0.70;;
71973;SDS011;59840;52.122;5.404;2022-11-15T14:23:00;2.72;;;0.50;;
71973;SDS011;59840;52.122;5.404;2022-11-15T14:25:29;2.55;;;0.60;;
71973;SDS011;59840;52.122;5.404;2022-11-15T14:30:48;5.73;;;0.70;;
71973;SDS011;59840;52.122;5.404;2022-11-15T14:33:30;6.53;;;0.90;;
71973;SDS011;59840;52.122;5.404;2022-11-15T14:36:04;1.55;;;0.50;;
71973;SDS011;59840;52.122;5.404;2022-11-15T14:38:31;6.10;;;1.13;;
71973;SDS011;59840;52.122;5.404;2022-11-15T14:40:59;3.05;;;0.50;;
71973;SDS011;59840;52.122;5.404;2022-11-15T14:43:26;2.57;;;0.63;;
71973;SDS011;59840;52.122;5.404;2022-11-15T14:45:52;2.75;;;0.85;;
71973;SDS011;59840;52.122;5.404;2022-11-15T14:48:19;3.40;;;0.70;;
71973;SDS011;59840;52.122;5.404;2022-11-15T14:50:46;2.63;;;0.57;;
71973;SDS011;59840;52.122;5.404;2022-11-15T14:53:16;2.85;;;0.55;;
71973;SDS011;59840;52.122;5.404;2022-11-15T14:55:44;3.10;;;0.67;;
71973;SDS011;59840;52.122;5.404;2022-11-15T14:58:10;2.08;;;0.77;;
71973;SDS011;59840;52.122;5.404;2022-11-15T15:00:38;1.77;;;0.50;;
71973;SDS011;59840;52.122;5.404;2022-11-15T15:03:06;2.40;;;0.77;;
71973;SDS011;59840;52.122;5.404;2022-11-15T15:05:39;2.20;;;0.75;;
71973;SDS011;59840;52.122;5.404;2022-11-15T15:08:08;3.57;;;0.50;;
71973;SDS011;59840;52.122;5.404;2022-11-15T15:10:41;5.75;;;0.50;;
71973;SDS011;59840;52.122;5.404;2022-11-15T15:13:15;1.58;;;0.60;;
71973;SDS011;59840;52.122;5.404;2022-11-15T15:15:48;2.22;;;0.45;;
71973;SDS011;59840;52.122;5.404;2022-11-15T15:18:17;1.83;;;0.60;;
71973;SDS011;59840;52.122;5.404;2022-11-15T15:20:47;2.97;;;0.40;;
71973;SDS011;59840;52.122;5.404;2022-11-15T15:23:20;0.75;;;0.45;;
71973;SDS011;59840;52.122;5.404;2022-11-15T15:25:47;1.15;;;0.50;;
71973;SDS011;59840;52.122;5.404;2022-11-15T15:28:15;3.30;;;0.50;;
71973;SDS011;59840;52.122;5.404;2022-11-15T15:30:41;2.70;;;0.70;;
71973;SDS011;59840;52.122;5.404;2022-11-15T15:33:08;2.00;;;0.40;;
71973;SDS011;59840;52.122;5.404;2022-11-15T15:35:34;2.15;;;0.50;;
71973;SDS011;59840;52.122;5.404;2022-11-15T15:38:01;2.83;;;0.45;;
71973;SDS011;59840;52.122;5.404;2022-11-15T15:40:30;2.25;;;0.50;;
71973;SDS011;59840;52.122;5.404;2022-11-15T15:42:58;2.45;;;0.40;;
71973;SDS011;59840;52.122;5.404;2022-11-15T15:45:25;1.00;;;0.30;;
71973;SDS011;59840;52.122;5.404;2022-11-15T15:47:52;3.47;;;0.43;;
71973;SDS011;59840;52.122;5.404;2022-11-15T15:52:51;1.10;;;0.68;;
71973;SDS011;59840;52.122;5.404;2022-11-15T15:55:19;2.85;;;0.43;;
71973;SDS011;59840;52.122;5.404;2022-11-15T15:57:46;2.03;;;0.50;;
71973;SDS011;59840;52.122;5.404;2022-11-15T16:00:14;2.08;;;0.68;;
71973;SDS011;59840;52.122;5.404;2022-11-15T16:02:42;2.38;;;0.50;;
71973;SDS011;59840;52.122;5.404;2022-11-15T16:05:09;1.75;;;0.63;;
71973;SDS011;59840;52.122;5.404;2022-11-15T16:07:36;1.15;;;0.30;;
71973;SDS011;59840;52.122;5.404;2022-11-15T16:10:14;2.00;;;0.63;;
71973;SDS011;59840;52.122;5.404;2022-11-15T16:12:48;2.25;;;0.40;;
71973;SDS011;59840;52.122;5.404;2022-11-15T16:15:15;1.80;;;0.65;;
71973;SDS011;59840;52.122;5.404;2022-11-15T16:17:44;2.40;;;0.65;;
71973;SDS011;59840;52.122;5.404;2022-11-15T16:20:36;2.10;;;0.65;;
71973;SDS011;59840;52.122;5.404;2022-11-15T16:23:09;4.27;;;0.50;;
71973;SDS011;59840;52.122;5.404;2022-11-15T16:28:45;8.70;;;1.20;;
71973;SDS011;59840;52.122;5.404;2022-11-15T16:31:12;3.03;;;1.05;;
71973;SDS011;59840;52.122;5.404;2022-11-15T16:33:39;1.55;;;0.55;;
71973;SDS011;59840;52.122;5.404;2022-11-15T16:36:11;2.13;;;0.60;;
71973;SDS011;59840;52.122;5.404;2022-11-15T16:38:44;2.45;;;0.60;;
71973;SDS011;59840;52.122;5.404;2022-11-15T16:41:10;5.15;;;0.93;;
71973;SDS011;59840;52.122;5.404;2022-11-15T16:43:37;6.05;;;1.92;;
71973;SDS011;59840;52.122;5.404;2022-11-15T16:46:08;16.48;;;5.20;;
71973;SDS011;59840;52.122;5.404;2022-11-15T16:48:39;24.50;;;8.50;;
71973;SDS011;59840;52.122;5.404;2022-11-15T16:51:06;6.07;;;1.70;;
71973;SDS011;59840;52.122;5.404;2022-11-15T16:53:32;6.13;;;1.50;;
71973;SDS011;59840;52.122;5.404;2022-11-15T16:55:59;8.60;;;3.30;;
71973;SDS011;59840;52.122;5.404;2022-11-15T16:58:25;4.45;;;1.80;;
71973;SDS011;59840;52.122;5.404;2022-11-15T17:00:53;3.17;;;1.10;;
71973;SDS011;59840;52.122;5.404;2022-11-15T17:03:21;5.25;;;2.35;;
71973;SDS011;59840;52.122;5.404;2022-11-15T17:05:48;9.48;;;3.50;;
71973;SDS011;59840;52.122;5.404;2022-11-15T17:08:15;6.82;;;3.08;;